createdAt,value
2022-11-16T00:01:15.906Z,99334.03
2022-11-16T00:03:43.271Z,99340.03
2022-11-16T00:06:11.379Z,99350.59
2022-11-16T00:08:42.895Z,99349.06
2022-11-16T00:11:15.786Z,99347.56
2022-11-16T00:13:46.522Z,99334.47
2022-11-16T00:16:16.712Z,99327.44
2022-11-16T00:18:44.582Z,99326.59
2022-11-16T00:21:11.196Z,99326.06
2022-11-16T00:23:39.016Z,99325.16
2022-11-16T00:26:12.393Z,99331.31
2022-11-16T00:28:38.913Z,99332.00
2022-11-16T00:31:07.353Z,99321.53
2022-11-16T00:33:34.498Z,99323.38
2022-11-16T00:36:02.359Z,99316.13
2022-11-16T00:38:29.093Z,99312.13
2022-11-16T00:40:55.578Z,99311.13
2022-11-16T00:43:22.080Z,99306.31
2022-11-16T00:45:48.803Z,99298.47
2022-11-16T00:48:15.351Z,99298.13
2022-11-16T00:50:41.830Z,99294.56
2022-11-16T00:53:11.957Z,99293.28
2022-11-16T00:55:38.462Z,99294.13
2022-11-16T00:58:04.965Z,99290.28
2022-11-16T01:00:31.687Z,99285.19
2022-11-16T01:02:58.214Z,99280.88
2022-11-16T01:05:24.833Z,99267.53
2022-11-16T01:07:52.104Z,99274.56
2022-11-16T01:10:21.619Z,99276.31
2022-11-16T01:12:49.202Z,99274.38
2022-11-16T01:15:17.480Z,99271.00
2022-11-16T01:17:44.134Z,99264.16
2022-11-16T01:20:14.143Z,99265.94
2022-11-16T01:22:41.191Z,99258.34
2022-11-16T01:25:08.787Z,99262.38
2022-11-16T01:27:35.371Z,99259.59
2022-11-16T01:30:02.075Z,99255.19
2022-11-16T01:32:28.602Z,99260.50
2022-11-16T01:34:55.198Z,99255.78
2022-11-16T01:37:21.741Z,99251.47
2022-11-16T01:39:49.666Z,99246.84
2022-11-16T01:42:21.634Z,99239.13
2022-11-16T01:44:48.085Z,99237.13
2022-11-16T01:47:16.723Z,99236.09
2022-11-16T01:49:47.479Z,99225.63
2022-11-16T01:52:18.212Z,99227.41
2022-11-16T01:54:47.019Z,99227.41
2022-11-16T01:57:20.551Z,99224.19
2022-11-16T01:59:50.015Z,99212.53
2022-11-16T02:02:16.666Z,99214.97
2022-11-16T02:04:45.112Z,99209.56
2022-11-16T02:07:29.945Z,99213.09
2022-11-16T02:10:20.026Z,99205.25
2022-11-16T02:13:13.661Z,99206.00
2022-11-16T02:15:46.433Z,99196.28
2022-11-16T02:18:37.875Z,99196.47
2022-11-16T02:21:22.963Z,99206.19
2022-11-16T02:23:58.611Z,99200.00
2022-11-16T02:26:31.150Z,99201.97
2022-11-16T02:29:21.405Z,99196.38
2022-11-16T02:31:55.418Z,99189.72
2022-11-16T02:34:23.697Z,99184.47
2022-11-16T02:36:55.225Z,99181.78
2022-11-16T02:39:27.055Z,99172.78
2022-11-16T02:41:56.076Z,99168.22
2022-11-16T02:44:29.149Z,99158.50
2022-11-16T02:46:59.925Z,99155.81
2022-11-16T02:49:28.923Z,99151.84
2022-11-16T02:51:58.986Z,99151.13
2022-11-16T02:54:25.680Z,99143.72
2022-11-16T02:57:16.849Z,99143.34
2022-11-16T02:59:48.424Z,99133.75
2022-11-16T03:02:41.308Z,99144.22
2022-11-16T03:05:07.873Z,99149.19
2022-11-16T03:07:57.529Z,99141.31
2022-11-16T03:10:42.656Z,99139.53
2022-11-16T03:13:11.775Z,99140.09
2022-11-16T03:15:39.864Z,99139.81
2022-11-16T03:18:08.752Z,99143.84
2022-11-16T03:20:37.934Z,99137.84
2022-11-16T03:23:08.693Z,99136.09
2022-11-16T03:25:46.344Z,99137.75
2022-11-16T03:28:21.816Z,99145.66
2022-11-16T03:30:59.898Z,99148.84
2022-11-16T03:33:35.444Z,99138.47
2022-11-16T03:36:09.617Z,99140.53
2022-11-16T03:38:39.444Z,99150.66
2022-11-16T03:41:08.767Z,99141.75
2022-11-16T03:43:37.432Z,99141.38
2022-11-16T03:46:04.847Z,99144.56
2022-11-16T03:48:39.486Z,99133.59
2022-11-16T03:51:08.958Z,99135.44
2022-11-16T03:53:35.808Z,99138.72
2022-11-16T03:56:02.539Z,99137.41
2022-11-16T03:58:29.206Z,99131.69
2022-11-16T04:00:55.893Z,99134.97
2022-11-16T04:03:22.542Z,99130.09
2022-11-16T04:06:07.727Z,99127.38
2022-11-16T04:08:52.647Z,99122.38
2022-11-16T04:11:40.629Z,99125.09
2022-11-16T04:14:29.982Z,99125.69
2022-11-16T04:17:14.841Z,99129.88
2022-11-16T04:20:00.374Z,99129.59
2022-11-16T04:22:52.263Z,99127.34
2022-11-16T04:25:23.128Z,99128.41
2022-11-16T04:28:08.239Z,99129.16
2022-11-16T04:30:53.004Z,99128.31
2022-11-16T04:33:42.769Z,99125.69
2022-11-16T04:36:27.991Z,99123.22
2022-11-16T04:38:54.540Z,99126.50
2022-11-16T04:41:39.599Z,99122.31
2022-11-16T04:44:06.117Z,99103.28
2022-11-16T04:46:51.448Z,99110.16
2022-11-16T04:49:17.968Z,99111.47
2022-11-16T04:51:44.542Z,99112.19
2022-11-16T04:54:11.133Z,99112.34
2022-11-16T04:56:37.669Z,99115.72
2022-11-16T04:59:04.259Z,99112.69
2022-11-16T05:01:49.264Z,99120.38
2022-11-16T05:04:15.759Z,99122.06
2022-11-16T05:06:42.361Z,99120.81
2022-11-16T05:09:08.929Z,99123.78
2022-11-16T05:11:35.476Z,99127.78
2022-11-16T05:14:02.553Z,99119.72
2022-11-16T05:16:29.184Z,99120.47
2022-11-16T05:19:13.982Z,99122.03
2022-11-16T05:21:40.466Z,99120.09
2022-11-16T05:24:25.366Z,99125.88
2022-11-16T05:26:51.866Z,99131.28
2022-11-16T05:29:18.387Z,99130.19
2022-11-16T05:31:44.923Z,99131.97
2022-11-16T05:34:11.632Z,99130.09
2022-11-16T05:36:38.158Z,99126.19
2022-11-16T05:39:05.560Z,99123.59
2022-11-16T05:41:32.373Z,99130.53
2022-11-16T05:43:59.342Z,99114.63
2022-11-16T05:46:25.904Z,99124.94
2022-11-16T05:48:52.445Z,99125.38
2022-11-16T05:51:19.040Z,99128.41
2022-11-16T05:53:45.661Z,99118.44
2022-11-16T05:56:14.339Z,99128.03
2022-11-16T05:58:41.142Z,99122.03
2022-11-16T06:01:07.782Z,99126.19
2022-11-16T06:03:36.256Z,99127.38
2022-11-16T06:06:04.452Z,99126.72
2022-11-16T06:08:31.556Z,99135.34
2022-11-16T06:11:05.278Z,99131.66
2022-11-16T06:13:32.635Z,99134.94
2022-11-16T06:16:00.289Z,99136.53
2022-11-16T06:18:27.003Z,99138.31
2022-11-16T06:20:53.928Z,99132.97
2022-11-16T06:23:20.629Z,99135.47
2022-11-16T06:25:47.211Z,99137.78
2022-11-16T06:28:14.959Z,99137.06
2022-11-16T06:30:41.496Z,99142.91
2022-11-16T06:33:08.843Z,99141.69
2022-11-16T06:35:35.365Z,99141.16
2022-11-16T06:38:01.929Z,99136.78
2022-11-16T06:40:28.444Z,99139.19
2022-11-16T06:42:57.141Z,99141.38
2022-11-16T06:45:23.814Z,99130.16
2022-11-16T06:47:50.288Z,99124.38
2022-11-16T06:50:20.041Z,99128.03
2022-11-16T06:52:47.493Z,99127.78
2022-11-16T06:55:14.438Z,99127.38
2022-11-16T06:57:41.139Z,99121.16
2022-11-16T07:00:10.040Z,99124.75
2022-11-16T07:02:38.001Z,99127.16
2022-11-16T07:05:05.211Z,99129.03
2022-11-16T07:07:32.684Z,99129.69
2022-11-16T07:09:59.406Z,99132.22
2022-11-16T07:12:26.626Z,99131.28
2022-11-16T07:14:53.182Z,99128.50
2022-11-16T07:17:19.773Z,99127.72
2022-11-16T07:19:46.326Z,99129.06
2022-11-16T07:22:12.919Z,99129.72
2022-11-16T07:24:39.548Z,99134.75
2022-11-16T07:27:07.671Z,99129.94
2022-11-16T07:29:34.357Z,99125.75
2022-11-16T07:32:00.874Z,99130.16
2022-11-16T07:34:27.478Z,99133.09
2022-11-16T07:36:54.046Z,99128.59
2022-11-16T07:39:21.895Z,99123.22
2022-11-16T07:41:50.453Z,99115.97
2022-11-16T07:44:17.104Z,99112.31
2022-11-16T07:46:46.964Z,99115.56
2022-11-16T07:49:15.750Z,99118.72
2022-11-16T07:51:42.790Z,99112.81
2022-11-16T07:54:12.440Z,99109.38
2022-11-16T07:56:39.097Z,99110.75
2022-11-16T07:59:06.092Z,99108.19
2022-11-16T08:01:33.414Z,99108.72
2022-11-16T08:04:01.755Z,99107.47
2022-11-16T08:06:30.858Z,99107.47
2022-11-16T08:08:58.993Z,99105.66
2022-11-16T08:11:26.151Z,99103.03
2022-11-16T08:13:52.770Z,99105.56
2022-11-16T08:16:21.377Z,99102.63
2022-11-16T08:18:48.144Z,99101.16
2022-11-16T08:21:16.370Z,99091.78
2022-11-16T08:23:44.920Z,99092.69
2022-11-16T08:26:17.113Z,99086.81
2022-11-16T08:28:45.403Z,99084.28
2022-11-16T08:31:18.656Z,99088.38
2022-11-16T08:33:45.498Z,99087.97
2022-11-16T08:36:17.241Z,99086.56
2022-11-16T08:38:53.428Z,99092.66
2022-11-16T08:41:20.525Z,99086.88
2022-11-16T08:43:47.726Z,99089.53
2022-11-16T08:46:14.797Z,99085.25
2022-11-16T08:48:41.517Z,99083.56
2022-11-16T08:51:19.199Z,99086.28
2022-11-16T08:53:48.242Z,99082.97
2022-11-16T08:56:16.465Z,99081.59
2022-11-16T08:58:44.311Z,99082.13
2022-11-16T09:01:19.943Z,99083.84
2022-11-16T09:03:46.474Z,99084.22
2022-11-16T09:06:14.219Z,99086.19
2022-11-16T09:08:42.415Z,99093.44
2022-11-16T09:11:12.295Z,99101.59
2022-11-16T09:13:39.171Z,99098.19
2022-11-16T09:16:05.971Z,99088.03
2022-11-16T09:18:33.027Z,99101.38
2022-11-16T09:20:59.905Z,99100.22
2022-11-16T09:23:26.570Z,99096.13
2022-11-16T09:25:54.773Z,99086.47
2022-11-16T09:28:22.267Z,99086.47
2022-11-16T09:30:51.182Z,99087.88
2022-11-16T09:33:18.278Z,99089.97
2022-11-16T09:35:45.082Z,99083.63
2022-11-16T09:38:14.875Z,99087.56
2022-11-16T09:40:47.751Z,99081.94
2022-11-16T09:43:16.849Z,99083.69
2022-11-16T09:46:03.171Z,99083.13
2022-11-16T09:48:33.111Z,99078.31
2022-11-16T09:51:08.123Z,99073.13
2022-11-16T09:53:59.850Z,99077.97
2022-11-16T09:56:28.539Z,99070.09
2022-11-16T09:59:16.717Z,99078.50
2022-11-16T10:02:16.716Z,99064.78
2022-11-16T10:04:55.207Z,99062.16
2022-11-16T10:07:35.457Z,99067.59
2022-11-16T10:10:02.077Z,99062.66
2022-11-16T10:12:46.287Z,99060.94
2022-11-16T10:15:28.319Z,99058.13
2022-11-16T10:18:37.284Z,99048.25
2022-11-16T10:21:16.313Z,99047.38
2022-11-16T10:24:01.523Z,99048.59
2022-11-16T10:26:40.348Z,99046.84
2022-11-16T10:29:22.046Z,99039.34
2022-11-16T10:32:00.657Z,99033.81
2022-11-16T10:34:36.424Z,99033.25
2022-11-16T10:37:11.616Z,99028.56
2022-11-16T10:39:41.310Z,99025.91
2022-11-16T10:42:17.070Z,99024.13
2022-11-16T10:45:29.748Z,99013.81
2022-11-16T10:48:41.236Z,99011.66
2022-11-16T10:51:09.812Z,99012.38
2022-11-16T10:53:39.952Z,99020.53
2022-11-16T10:56:40.466Z,99008.53
2022-11-16T10:59:09.801Z,99011.16
2022-11-16T11:01:39.446Z,99020.41
2022-11-16T11:04:27.505Z,99012.75
2022-11-16T11:07:02.077Z,99015.38
2022-11-16T11:09:35.309Z,99012.25
2022-11-16T11:12:37.999Z,99010.78
2022-11-16T11:15:04.629Z,99011.53
2022-11-16T11:17:32.927Z,99013.19
2022-11-16T11:20:03.657Z,99009.25
2022-11-16T11:22:33.132Z,99000.84
2022-11-16T11:25:03.238Z,98994.97
2022-11-16T11:27:34.740Z,98995.91
2022-11-16T11:30:01.869Z,98994.81
2022-11-16T11:32:38.680Z,98996.34
2022-11-16T11:35:06.565Z,98999.97
2022-11-16T11:37:37.756Z,98994.53
2022-11-16T11:40:05.710Z,98990.34
2022-11-16T11:42:32.265Z,98996.47
2022-11-16T11:45:03.390Z,98996.09
2022-11-16T11:47:59.013Z,98995.53
2022-11-16T11:50:57.638Z,98987.53
2022-11-16T11:53:35.641Z,98994.56
2022-11-16T11:56:02.421Z,98983.75
2022-11-16T11:58:38.609Z,98988.22
2022-11-16T12:01:32.462Z,98986.75
2022-11-16T12:04:08.085Z,98985.56
2022-11-16T12:06:49.466Z,98985.84
2022-11-16T12:09:19.117Z,98989.03
2022-11-16T12:12:05.993Z,98996.22
2022-11-16T12:14:52.603Z,98994.78
2022-11-16T12:17:45.469Z,98997.31
2022-11-16T12:20:25.802Z,98996.41
2022-11-16T12:23:10.266Z,98994.25
2022-11-16T12:25:44.248Z,98986.97
2022-11-16T12:28:38.509Z,98993.97
2022-11-16T12:31:27.301Z,98990.25
2022-11-16T12:34:24.737Z,98994.81
2022-11-16T12:37:20.383Z,98984.78
2022-11-16T12:40:10.092Z,98989.16
2022-11-16T12:42:45.556Z,98983.78
2022-11-16T12:45:32.836Z,98979.06
2022-11-16T12:47:59.466Z,98988.81
2022-11-16T12:50:41.295Z,98980.13
2022-11-16T12:53:26.442Z,98984.94
2022-11-16T12:56:14.675Z,98987.63
2022-11-16T12:59:25.930Z,98972.59
2022-11-16T13:02:01.464Z,98979.50
2022-11-16T13:04:31.267Z,98979.16
2022-11-16T13:07:11.255Z,98979.53
2022-11-16T13:09:43.423Z,98984.63
2022-11-16T13:12:15.409Z,98983.81
2022-11-16T13:14:45.878Z,98976.16
2022-11-16T13:17:21.222Z,98984.56
2022-11-16T13:20:09.066Z,98979.13
2022-11-16T13:22:50.886Z,98981.03
2022-11-16T13:25:21.006Z,98981.03
2022-11-16T13:27:53.558Z,98984.88
2022-11-16T13:30:22.189Z,98983.94
2022-11-16T13:33:28.583Z,98981.41
2022-11-16T13:35:55.342Z,98980.41
2022-11-16T13:38:52.303Z,98978.97
2022-11-16T13:41:35.188Z,98979.69
2022-11-16T13:44:13.395Z,98977.84
2022-11-16T13:46:57.590Z,98975.31
2022-11-16T13:49:35.427Z,98966.00
2022-11-16T13:52:21.934Z,98970.56
2022-11-16T13:54:55.420Z,98970.22
2022-11-16T13:57:36.182Z,98973.31
2022-11-16T14:00:04.894Z,98982.56
2022-11-16T14:02:40.294Z,98975.78
2022-11-16T14:05:12.848Z,98969.41
2022-11-16T14:07:43.072Z,98976.03
2022-11-16T14:10:11.517Z,98967.66
2022-11-16T14:12:38.267Z,98965.63
2022-11-16T14:15:15.405Z,98964.97
2022-11-16T14:17:57.983Z,98964.34
2022-11-16T14:20:50.952Z,98963.50
2022-11-16T14:23:30.778Z,98956.94
2022-11-16T14:26:16.597Z,98959.19
2022-11-16T14:28:51.107Z,98956.50
2022-11-16T14:31:25.603Z,98956.94
2022-11-16T14:33:55.357Z,98953.75
2022-11-16T14:36:43.165Z,98959.31
2022-11-16T14:39:21.859Z,98953.97
2022-11-16T14:41:48.396Z,98950.81
2022-11-16T14:44:20.156Z,98949.56
2022-11-16T14:46:46.866Z,98950.03
2022-11-16T14:49:16.478Z,98949.91
2022-11-16T14:51:47.616Z,98949.75
2022-11-16T14:54:27.432Z,98944.19
2022-11-16T14:56:59.322Z,98950.44
2022-11-16T14:59:26.442Z,98943.94
2022-11-16T15:01:53.471Z,98950.00
2022-11-16T15:04:22.204Z,98946.03
2022-11-16T15:06:58.568Z,98946.41
2022-11-16T15:09:34.557Z,98943.94
2022-11-16T15:12:22.116Z,98956.59
2022-11-16T15:14:54.787Z,98945.25
2022-11-16T15:17:30.161Z,98941.72
2022-11-16T15:20:23.048Z,98933.03
2022-11-16T15:22:54.793Z,98939.81
2022-11-16T15:25:31.950Z,98933.78
2022-11-16T15:28:01.947Z,98940.28
2022-11-16T15:30:32.994Z,98933.59
2022-11-16T15:33:02.971Z,98931.47
2022-11-16T15:35:34.920Z,98937.28
2022-11-16T15:38:01.403Z,98932.72
2022-11-16T15:40:29.590Z,98932.38
2022-11-16T15:42:59.362Z,98941.34
2022-11-16T15:45:26.586Z,98936.16
2022-11-16T15:47:54.173Z,98940.63
2022-11-16T15:50:25.446Z,98944.25
2022-11-16T15:52:55.357Z,98944.69
2022-11-16T15:55:31.834Z,98938.63
2022-11-16T15:58:02.894Z,98942.56
2022-11-16T16:00:31.491Z,98939.81
2022-11-16T16:03:05.253Z,98930.13
2022-11-16T16:05:39.812Z,98931.97
2022-11-16T16:08:23.203Z,98930.78
2022-11-16T16:10:59.544Z,98940.06
2022-11-16T16:13:30.129Z,98931.97
2022-11-16T16:16:21.185Z,98937.75
2022-11-16T16:18:48.089Z,98932.63
2022-11-16T16:21:14.719Z,98937.34
2022-11-16T16:23:51.423Z,98936.09
2022-11-16T16:26:18.533Z,98929.53
2022-11-16T16:28:45.485Z,98932.31
2022-11-16T16:31:12.821Z,98928.13
2022-11-16T16:33:39.472Z,98930.28
2022-11-16T16:36:06.976Z,98937.66
2022-11-16T16:38:33.562Z,98936.19
2022-11-16T16:41:05.257Z,98935.78
2022-11-16T16:43:32.804Z,98936.66
2022-11-16T16:46:03.915Z,98937.66
2022-11-16T16:48:32.037Z,98935.03
2022-11-16T16:50:58.682Z,98933.47
2022-11-16T16:53:26.558Z,98929.91
2022-11-16T16:55:53.242Z,98932.97
2022-11-16T16:58:20.072Z,98937.06
2022-11-16T17:00:46.741Z,98931.69
2022-11-16T17:03:13.489Z,98939.56
2022-11-16T17:05:41.105Z,98925.91
2022-11-16T17:08:08.006Z,98934.84
2022-11-16T17:10:36.877Z,98935.78
2022-11-16T17:13:03.895Z,98930.75
2022-11-16T17:15:30.762Z,98928.31
2022-11-16T17:17:58.941Z,98934.53
2022-11-16T17:20:25.994Z,98933.91
2022-11-16T17:22:52.813Z,98934.03
2022-11-16T17:25:20.777Z,98933.69
2022-11-16T17:27:47.535Z,98932.88
2022-11-16T17:30:14.666Z,98935.03
2022-11-16T17:32:41.506Z,98929.59
2022-11-16T17:35:08.731Z,98933.06
2022-11-16T17:37:38.689Z,98933.16
2022-11-16T17:40:05.972Z,98936.44
2022-11-16T17:42:35.677Z,98927.78
2022-11-16T17:45:03.027Z,98928.22
2022-11-16T17:47:33.592Z,98937.16
2022-11-16T17:50:00.278Z,98930.53
2022-11-16T17:52:26.972Z,98932.41
2022-11-16T17:54:53.507Z,98940.75
2022-11-16T17:57:20.168Z,98933.16
2022-11-16T17:59:47.827Z,98941.25
2022-11-16T18:02:14.487Z,98939.38
2022-11-16T18:04:41.304Z,98936.09
2022-11-16T18:07:07.986Z,98942.09
2022-11-16T18:09:34.576Z,98938.53
2022-11-16T18:12:01.220Z,98935.91
2022-11-16T18:14:27.856Z,98940.19
2022-11-16T18:16:54.659Z,98940.53
2022-11-16T18:19:21.355Z,98944.81
2022-11-16T18:21:48.920Z,98939.38
2022-11-16T18:24:15.787Z,98943.06
2022-11-16T18:26:42.593Z,98939.47
2022-11-16T18:29:12.826Z,98939.16
2022-11-16T18:31:40.337Z,98943.38
2022-11-16T18:34:06.912Z,98945.69
2022-11-16T18:36:33.764Z,98938.00
2022-11-16T18:39:00.281Z,98941.69
2022-11-16T18:41:29.802Z,98938.94
2022-11-16T18:43:58.778Z,98941.25
2022-11-16T18:46:32.645Z,98940.00
2022-11-16T18:48:59.971Z,98943.16
2022-11-16T18:51:28.398Z,98942.59
2022-11-16T18:53:55.422Z,98938.63
2022-11-16T18:56:22.720Z,98935.50
2022-11-16T18:58:51.302Z,98932.53
2022-11-16T19:01:22.235Z,98928.22
2022-11-16T19:03:49.167Z,98926.97
2022-11-16T19:06:17.603Z,98919.59
2022-11-16T19:08:49.052Z,98925.78
2022-11-16T19:11:20.490Z,98924.00
2022-11-16T19:13:52.784Z,98925.16
2022-11-16T19:16:19.349Z,98923.56
2022-11-16T19:18:45.818Z,98922.53
2022-11-16T19:21:15.002Z,98927.03
2022-11-16T19:23:43.448Z,98928.22
2022-11-16T19:26:12.785Z,98921.78
2022-11-16T19:28:41.647Z,98921.91
2022-11-16T19:31:08.407Z,98920.44
2022-11-16T19:33:35.405Z,98923.97
2022-11-16T19:36:16.346Z,98916.53
2022-11-16T19:38:44.360Z,98933.66
2022-11-16T19:41:12.758Z,98921.06
2022-11-16T19:43:39.709Z,98933.88
2022-11-16T19:46:11.695Z,98931.03
2022-11-16T19:48:38.583Z,98931.44
2022-11-16T19:51:10.136Z,98924.50
2022-11-16T19:53:38.052Z,98924.81
2022-11-16T19:56:06.443Z,98931.94
2022-11-16T19:58:37.091Z,98938.00
2022-11-16T20:01:14.971Z,98926.91
2022-11-16T20:03:42.218Z,98928.88
2022-11-16T20:06:14.905Z,98936.13
2022-11-16T20:08:42.945Z,98927.34
2022-11-16T20:11:22.791Z,98928.47
2022-11-16T20:13:51.417Z,98924.69
2022-11-16T20:16:19.624Z,98925.03
2022-11-16T20:18:46.702Z,98924.72
2022-11-16T20:21:18.948Z,98926.47
2022-11-16T20:23:45.600Z,98922.25
2022-11-16T20:26:13.613Z,98927.06
2022-11-16T20:28:42.095Z,98925.28
2022-11-16T20:31:11.813Z,98915.88
2022-11-16T20:33:38.740Z,98916.22
2022-11-16T20:36:08.652Z,98919.22
2022-11-16T20:38:36.498Z,98914.50
2022-11-16T20:41:13.602Z,98922.47
2022-11-16T20:43:41.123Z,98921.63
2022-11-16T20:46:09.420Z,98920.22
2022-11-16T20:48:36.471Z,98921.94
2022-11-16T20:51:03.440Z,98931.38
2022-11-16T20:53:29.922Z,98921.63
2022-11-16T20:55:57.538Z,98925.72
2022-11-16T20:58:24.552Z,98922.84
2022-11-16T21:00:51.567Z,98926.66
2022-11-16T21:03:18.169Z,98928.75
2022-11-16T21:05:46.392Z,98924.88
2022-11-16T21:08:13.202Z,98921.06
2022-11-16T21:10:40.285Z,98929.34
2022-11-16T21:13:30.796Z,98928.81
2022-11-16T21:16:00.236Z,98930.72
2022-11-16T21:18:30.755Z,98923.69
2022-11-16T21:21:03.326Z,98922.22
2022-11-16T21:23:32.104Z,98924.50
2022-11-16T21:26:06.854Z,98929.19
2022-11-16T21:28:34.273Z,98937.81
2022-11-16T21:31:06.093Z,98937.63
2022-11-16T21:33:33.577Z,98940.03
2022-11-16T21:36:08.255Z,98942.75
2022-11-16T21:38:34.913Z,98937.50
2022-11-16T21:41:01.971Z,98936.38
2022-11-16T21:43:28.575Z,98933.75
2022-11-16T21:46:01.972Z,98943.50
2022-11-16T21:48:28.717Z,98945.78
2022-11-16T21:51:06.609Z,98942.47
2022-11-16T21:53:34.190Z,98941.47
2022-11-16T21:56:01.719Z,98948.22
2022-11-16T21:58:28.233Z,98935.09
2022-11-16T22:00:56.684Z,98931.03
2022-11-16T22:03:28.392Z,98930.69
2022-11-16T22:06:15.475Z,98931.81
2022-11-16T22:08:42.490Z,98931.81
2022-11-16T22:11:09.620Z,98936.44
2022-11-16T22:13:37.393Z,98945.88
2022-11-16T22:16:09.145Z,98941.47
2022-11-16T22:18:36.399Z,98937.19
2022-11-16T22:21:03.287Z,98938.09
2022-11-16T22:23:29.960Z,98943.56
2022-11-16T22:26:04.973Z,98941.03
2022-11-16T22:28:32.584Z,98943.66
2022-11-16T22:31:01.345Z,98949.72
2022-11-16T22:33:28.786Z,98951.72
2022-11-16T22:35:55.475Z,98950.53
2022-11-16T22:38:22.514Z,98940.66
2022-11-16T22:40:50.737Z,98940.19
2022-11-16T22:43:18.201Z,98938.41
2022-11-16T22:45:44.751Z,98942.72
2022-11-16T22:48:11.244Z,98940.63
2022-11-16T22:50:37.793Z,98940.41
2022-11-16T22:53:04.492Z,98928.66
2022-11-16T22:55:34.789Z,98929.44
2022-11-16T22:58:01.373Z,98927.25
2022-11-16T23:00:27.888Z,98937.16
2022-11-16T23:02:54.698Z,98925.63
2022-11-16T23:05:21.239Z,98933.09
2022-11-16T23:07:47.727Z,98930.69
2022-11-16T23:10:15.471Z,98931.53
2022-11-16T23:13:00.600Z,98928.34
2022-11-16T23:15:49.921Z,98927.56
2022-11-16T23:18:17.543Z,98922.75
2022-11-16T23:21:02.747Z,98921.44
2022-11-16T23:23:47.611Z,98917.59
2022-11-16T23:26:40.943Z,98906.28
2022-11-16T23:29:11.369Z,98906.50
2022-11-16T23:31:38.352Z,98915.09
2022-11-16T23:34:05.391Z,98916.56
2022-11-16T23:36:32.064Z,98918.06
2022-11-16T23:38:58.562Z,98928.22
2022-11-16T23:41:43.534Z,98923.53
2022-11-16T23:44:10.105Z,98919.31
2022-11-16T23:46:36.682Z,98922.31
2022-11-16T23:49:03.271Z,98910.19
2022-11-16T23:51:29.763Z,98915.50
2022-11-16T23:53:56.459Z,98912.22
2022-11-16T23:56:23.655Z,98904.06
2022-11-16T23:58:50.217Z,98898.38
